createdAt,value
2023-03-01T00:01:13.182Z,0.03
2023-03-01T00:03:40.470Z,-0.06
2023-03-01T00:06:08.389Z,-0.08
2023-03-01T00:08:36.630Z,-0.09
2023-03-01T00:11:32.210Z,-0.09
2023-03-01T00:14:02.028Z,-0.10
2023-03-01T00:16:34.867Z,-0.11
2023-03-01T00:19:03.570Z,-0.13
2023-03-01T00:21:31.225Z,-0.19
2023-03-01T00:23:58.827Z,-0.17
2023-03-01T00:26:27.820Z,-0.18
2023-03-01T00:28:56.993Z,-0.21
2023-03-01T00:31:27.005Z,-0.19
2023-03-01T00:33:58.874Z,-0.22
2023-03-01T00:36:31.520Z,-0.26
2023-03-01T00:38:59.305Z,-0.25
2023-03-01T00:41:29.833Z,-0.26
2023-03-01T00:43:56.888Z,-0.25
2023-03-01T00:46:28.149Z,-0.27
2023-03-01T00:48:56.012Z,-0.29
2023-03-01T00:51:27.146Z,-0.29
2023-03-01T00:53:57.924Z,-0.28
2023-03-01T00:56:26.054Z,-0.34
2023-03-01T00:58:53.702Z,-0.38
2023-03-01T01:01:28.561Z,-0.38
2023-03-01T01:04:00.869Z,-0.43
2023-03-01T01:06:31.374Z,-0.43
2023-03-01T01:08:59.086Z,-0.42
2023-03-01T01:11:29.046Z,-0.41
2023-03-01T01:13:57.121Z,-0.41
2023-03-01T01:16:26.928Z,-0.39
2023-03-01T01:18:56.157Z,-0.40
2023-03-01T01:21:24.796Z,-0.45
2023-03-01T01:23:54.837Z,-0.44
2023-03-01T01:26:30.127Z,-0.47
2023-03-01T01:28:58.209Z,-0.50
2023-03-01T01:31:26.642Z,-0.44
2023-03-01T01:33:54.394Z,-0.47
2023-03-01T01:36:21.920Z,-0.50
2023-03-01T01:38:49.819Z,-0.52
2023-03-01T01:41:18.765Z,-0.55
2023-03-01T01:43:49.312Z,-0.50
2023-03-01T01:46:25.440Z,-0.51
2023-03-01T01:48:59.925Z,-0.54
2023-03-01T01:51:39.579Z,-0.52
2023-03-01T01:54:22.332Z,-0.59
2023-03-01T01:56:56.250Z,-0.58
2023-03-01T01:59:28.238Z,-0.59
2023-03-01T02:01:55.606Z,-0.63
2023-03-01T02:04:23.172Z,-0.63
2023-03-01T02:06:58.182Z,-0.65
2023-03-01T02:09:25.518Z,-0.65
2023-03-01T02:11:53.309Z,-0.69
2023-03-01T02:14:21.564Z,-0.77
2023-03-01T02:16:49.435Z,-0.74
2023-03-01T02:19:32.373Z,-0.74
2023-03-01T02:22:20.185Z,-0.72
2023-03-01T02:25:00.177Z,-0.72
2023-03-01T02:27:38.900Z,-0.72
2023-03-01T02:30:07.684Z,-0.71
2023-03-01T02:32:36.552Z,-0.75
2023-03-01T02:35:10.559Z,-0.77
2023-03-01T02:37:38.150Z,-0.82
2023-03-01T02:40:12.810Z,-0.79
2023-03-01T02:42:50.135Z,-0.84
2023-03-01T02:45:17.594Z,-0.79
2023-03-01T02:47:44.579Z,-0.78
2023-03-01T02:50:26.231Z,-0.79
2023-03-01T02:53:14.269Z,-0.75
2023-03-01T02:55:41.792Z,-0.73
2023-03-01T02:58:10.096Z,-0.74
2023-03-01T03:00:41.308Z,-0.73
2023-03-01T03:03:08.984Z,-0.76
2023-03-01T03:05:36.055Z,-0.74
2023-03-01T03:08:05.241Z,-0.73
2023-03-01T03:10:40.597Z,-0.72
2023-03-01T03:13:15.889Z,-0.76
2023-03-01T03:15:44.376Z,-0.81
2023-03-01T03:18:15.470Z,-0.87
2023-03-01T03:20:43.842Z,-0.91
2023-03-01T03:23:11.178Z,-0.92
2023-03-01T03:25:39.234Z,-0.91
2023-03-01T03:28:11.009Z,-0.92
2023-03-01T03:30:41.010Z,-0.91
2023-03-01T03:33:11.923Z,-0.91
2023-03-01T03:35:46.054Z,-0.93
2023-03-01T03:38:18.237Z,-0.91
2023-03-01T03:40:50.923Z,-0.90
2023-03-01T03:43:21.421Z,-0.91
2023-03-01T03:45:50.150Z,-0.92
2023-03-01T03:48:18.835Z,-0.92
2023-03-01T03:50:53.446Z,-0.95
2023-03-01T03:53:21.951Z,-0.98
2023-03-01T03:55:50.533Z,-1.04
2023-03-01T03:58:20.903Z,-1.03
2023-03-01T04:00:51.101Z,-1.01
2023-03-01T04:03:20.039Z,-1.02
2023-03-01T04:05:47.776Z,-1.02
2023-03-01T04:08:15.907Z,-1.06
2023-03-01T04:10:48.898Z,-0.99
2023-03-01T04:13:18.091Z,-1.00
2023-03-01T04:15:44.922Z,-1.03
2023-03-01T04:18:16.768Z,-0.98
2023-03-01T04:20:46.175Z,-1.01
2023-03-01T04:23:17.220Z,-1.01
2023-03-01T04:25:47.023Z,-1.02
2023-03-01T04:28:13.962Z,-1.01
2023-03-01T04:30:40.895Z,-0.99
2023-03-01T04:33:10.621Z,-1.05
2023-03-01T04:35:39.246Z,-1.14
2023-03-01T04:38:06.793Z,-1.15
2023-03-01T04:40:34.033Z,-1.14
2023-03-01T04:43:01.401Z,-1.18
2023-03-01T04:45:29.007Z,-1.18
2023-03-01T04:47:56.136Z,-1.21
2023-03-01T04:50:24.655Z,-1.24
2023-03-01T04:52:51.464Z,-1.24
2023-03-01T04:55:18.421Z,-1.23
2023-03-01T04:57:46.042Z,-1.19
2023-03-01T05:00:21.452Z,-1.18
2023-03-01T05:02:56.905Z,-1.19
2023-03-01T05:05:34.358Z,-1.20
2023-03-01T05:08:03.591Z,-1.21
2023-03-01T05:10:33.138Z,-1.22
2023-03-01T05:13:00.575Z,-1.27
2023-03-01T05:15:29.488Z,-1.22
2023-03-01T05:18:00.799Z,-1.18
2023-03-01T05:20:30.168Z,-1.16
2023-03-01T05:23:00.239Z,-1.17
2023-03-01T05:25:28.254Z,-1.18
2023-03-01T05:27:55.158Z,-1.19
2023-03-01T05:30:24.165Z,-1.13
2023-03-01T05:32:57.018Z,-1.13
2023-03-01T05:35:25.506Z,-1.12
2023-03-01T05:37:54.827Z,-1.13
2023-03-01T05:40:27.256Z,-1.15
2023-03-01T05:42:57.345Z,-1.17
2023-03-01T05:45:31.524Z,-1.18
2023-03-01T05:47:58.812Z,-1.15
2023-03-01T05:50:28.664Z,-1.13
2023-03-01T05:53:08.953Z,-1.17
2023-03-01T05:55:37.240Z,-1.17
2023-03-01T05:58:08.244Z,-1.19
2023-03-01T06:00:35.577Z,-1.18
2023-03-01T06:03:03.012Z,-1.22
2023-03-01T06:05:30.498Z,-1.25
2023-03-01T06:08:01.165Z,-1.20
2023-03-01T06:10:28.519Z,-1.21
2023-03-01T06:12:58.615Z,-1.19
2023-03-01T06:15:26.269Z,-1.20
2023-03-01T06:17:58.184Z,-1.19
2023-03-01T06:20:27.910Z,-1.22
2023-03-01T06:22:54.975Z,-1.22
2023-03-01T06:25:24.284Z,-1.21
2023-03-01T06:27:53.299Z,-1.18
2023-03-01T06:30:22.165Z,-1.16
2023-03-01T06:32:49.803Z,-1.21
2023-03-01T06:35:21.744Z,-1.14
2023-03-01T06:37:51.592Z,-1.13
2023-03-01T06:40:19.609Z,-1.10
2023-03-01T06:42:50.835Z,-1.04
2023-03-01T06:45:29.268Z,-1.05
2023-03-01T06:48:06.579Z,-0.99
2023-03-01T06:50:35.305Z,-0.95
2023-03-01T06:53:02.751Z,-0.89
2023-03-01T06:55:30.190Z,-0.82
2023-03-01T06:57:58.557Z,-0.80
2023-03-01T07:00:27.354Z,-0.73
2023-03-01T07:02:54.657Z,-0.64
2023-03-01T07:05:21.879Z,-0.58
2023-03-01T07:07:48.745Z,-0.53
2023-03-01T07:10:15.611Z,-0.56
2023-03-01T07:12:42.746Z,-0.55
2023-03-01T07:15:11.446Z,-0.47
2023-03-01T07:17:38.941Z,-0.43
2023-03-01T07:20:06.276Z,-0.44
2023-03-01T07:22:33.123Z,-0.49
2023-03-01T07:25:00.962Z,-0.42
2023-03-01T07:27:27.832Z,-0.38
2023-03-01T07:29:54.649Z,-0.36
2023-03-01T07:32:21.717Z,-0.33
2023-03-01T07:34:50.058Z,-0.29
2023-03-01T07:37:16.939Z,-0.25
2023-03-01T07:39:43.751Z,-0.18
2023-03-01T07:42:12.962Z,-0.16
2023-03-01T07:44:40.457Z,-0.08
2023-03-01T07:47:07.323Z,-0.03
2023-03-01T07:49:34.148Z,-0.01
2023-03-01T07:52:02.293Z,0.03
2023-03-01T07:54:29.177Z,0.08
2023-03-01T07:56:58.015Z,0.16
2023-03-01T07:59:30.195Z,0.21
2023-03-01T08:01:58.307Z,0.27
2023-03-01T08:04:27.835Z,0.32
2023-03-01T08:06:56.290Z,0.43
2023-03-01T08:09:23.312Z,0.52
2023-03-01T08:11:50.312Z,0.64
2023-03-01T08:14:18.622Z,0.71
2023-03-01T08:16:45.624Z,0.83
2023-03-01T08:19:13.246Z,0.99
2023-03-01T08:21:40.927Z,1.16
2023-03-01T08:24:10.547Z,1.32
2023-03-01T08:26:38.279Z,1.48
2023-03-01T08:29:05.833Z,1.55
2023-03-01T08:31:38.344Z,1.61
2023-03-01T08:34:08.344Z,1.67
2023-03-01T08:36:41.200Z,1.78
2023-03-01T08:39:09.290Z,1.88
2023-03-01T08:41:36.294Z,1.99
2023-03-01T08:44:04.316Z,2.07
2023-03-01T08:46:40.184Z,2.13
2023-03-01T08:49:10.120Z,2.25
2023-03-01T08:51:38.070Z,2.37
2023-03-01T08:54:15.174Z,2.50
2023-03-01T08:56:42.532Z,2.63
2023-03-01T08:59:11.369Z,2.75
2023-03-01T09:01:38.345Z,2.90
2023-03-01T09:04:05.359Z,3.02
2023-03-01T09:06:34.253Z,3.16
2023-03-01T09:09:01.818Z,3.30
2023-03-01T09:11:29.790Z,3.39
2023-03-01T09:13:57.527Z,3.44
2023-03-01T09:16:25.390Z,3.48
2023-03-01T09:18:55.516Z,3.49
2023-03-01T09:21:38.634Z,3.67
2023-03-01T09:24:07.144Z,3.82
2023-03-01T09:26:34.257Z,3.86
2023-03-01T09:29:01.550Z,3.95
2023-03-01T09:31:29.504Z,4.06
2023-03-01T09:34:00.398Z,4.17
2023-03-01T09:36:27.316Z,4.26
2023-03-01T09:38:54.531Z,4.50
2023-03-01T09:41:43.769Z,4.72
2023-03-01T09:44:20.900Z,4.86
2023-03-01T09:46:48.306Z,4.93
2023-03-01T09:49:26.110Z,5.09
2023-03-01T09:52:06.238Z,5.28
2023-03-01T09:54:33.307Z,5.48
2023-03-01T09:57:27.868Z,5.66
2023-03-01T10:00:07.439Z,5.81
2023-03-01T10:02:53.823Z,5.88
2023-03-01T10:05:35.243Z,6.05
2023-03-01T10:08:28.280Z,6.24
2023-03-01T10:10:55.304Z,6.42
2023-03-01T10:13:34.387Z,6.61
2023-03-01T10:16:16.107Z,6.75
2023-03-01T10:18:48.743Z,7.02
2023-03-01T10:21:20.117Z,7.29
2023-03-01T10:23:52.691Z,7.46
2023-03-01T10:26:46.098Z,7.68
2023-03-01T10:29:14.479Z,7.91
2023-03-01T10:31:48.564Z,8.07
2023-03-01T10:34:18.959Z,8.15
2023-03-01T10:36:50.670Z,8.36
2023-03-01T10:39:21.432Z,8.65
2023-03-01T10:41:59.358Z,8.93
2023-03-01T10:44:55.769Z,9.29
2023-03-01T10:47:26.347Z,9.50
2023-03-01T10:49:59.451Z,9.73
2023-03-01T10:52:36.057Z,9.95
2023-03-01T10:55:18.274Z,10.22
2023-03-01T10:57:45.154Z,10.16
2023-03-01T11:00:23.640Z,10.18
2023-03-01T11:03:13.605Z,10.44
2023-03-01T11:05:56.836Z,10.61
2023-03-01T11:08:42.061Z,10.82
2023-03-01T11:11:24.247Z,10.81
2023-03-01T11:13:53.897Z,11.10
2023-03-01T11:16:30.508Z,11.53
2023-03-01T11:19:18.385Z,11.92
2023-03-01T11:22:03.433Z,11.99
2023-03-01T11:24:42.292Z,11.89
2023-03-01T11:27:33.471Z,12.01
2023-03-01T11:30:17.133Z,12.13
2023-03-01T11:32:47.738Z,12.21
2023-03-01T11:35:28.222Z,12.06
2023-03-01T11:38:17.596Z,12.03
2023-03-01T11:40:54.956Z,12.07
2023-03-01T11:43:54.256Z,12.14
2023-03-01T11:46:33.358Z,12.30
2023-03-01T11:49:39.219Z,12.47
2023-03-01T11:52:15.546Z,12.80
2023-03-01T11:55:02.525Z,13.07
2023-03-01T11:57:43.842Z,13.42
2023-03-01T12:00:32.064Z,13.88
2023-03-01T12:03:24.727Z,14.39
2023-03-01T12:06:36.988Z,14.75
2023-03-01T12:09:18.034Z,14.52
2023-03-01T12:12:08.893Z,14.66
2023-03-01T12:14:51.090Z,14.60
2023-03-01T12:17:42.491Z,14.67
2023-03-01T12:20:34.254Z,15.06
2023-03-01T12:23:20.855Z,15.52
2023-03-01T12:26:05.173Z,15.67
2023-03-01T12:28:53.617Z,15.33
2023-03-01T12:31:45.507Z,14.96
2023-03-01T12:34:42.924Z,14.54
2023-03-01T12:37:37.737Z,14.34
2023-03-01T12:40:29.231Z,14.22
2023-03-01T12:43:31.112Z,14.25
2023-03-01T12:46:40.634Z,14.35
2023-03-01T12:49:14.306Z,14.69
2023-03-01T12:51:41.989Z,14.64
2023-03-01T12:54:17.349Z,14.51
2023-03-01T12:56:53.781Z,14.52
2023-03-01T12:59:39.676Z,14.84
2023-03-01T13:02:14.729Z,14.95
2023-03-01T13:04:53.659Z,15.04
2023-03-01T13:07:26.047Z,15.24
2023-03-01T13:10:02.737Z,15.11
2023-03-01T13:12:45.721Z,15.44
2023-03-01T13:15:25.164Z,15.14
2023-03-01T13:17:57.232Z,15.28
2023-03-01T13:20:52.451Z,15.65
2023-03-01T13:23:22.660Z,15.78
2023-03-01T13:26:12.310Z,15.48
2023-03-01T13:28:43.055Z,15.68
2023-03-01T13:31:16.260Z,15.94
2023-03-01T13:33:53.340Z,16.05
2023-03-01T13:36:29.977Z,16.05
2023-03-01T13:38:59.644Z,15.51
2023-03-01T13:41:51.273Z,14.91
2023-03-01T13:44:25.032Z,14.46
2023-03-01T13:47:16.078Z,14.19
2023-03-01T13:49:48.337Z,14.23
2023-03-01T13:52:43.405Z,14.08
2023-03-01T13:55:17.880Z,14.04
2023-03-01T13:57:49.581Z,14.22
2023-03-01T14:00:45.824Z,14.11
2023-03-01T14:03:20.634Z,14.40
2023-03-01T14:06:19.737Z,14.92
2023-03-01T14:08:50.744Z,15.27
2023-03-01T14:11:36.237Z,15.55
2023-03-01T14:14:30.923Z,15.75
2023-03-01T14:17:24.474Z,16.03
2023-03-01T14:19:58.619Z,16.26
2023-03-01T14:22:33.213Z,16.37
2023-03-01T14:25:16.419Z,16.26
2023-03-01T14:27:44.179Z,16.03
2023-03-01T14:30:17.063Z,15.88
2023-03-01T14:32:44.237Z,15.80
2023-03-01T14:35:27.500Z,15.22
2023-03-01T14:37:54.721Z,14.78
2023-03-01T14:40:40.009Z,13.89
2023-03-01T14:43:16.912Z,12.95
2023-03-01T14:45:50.012Z,12.30
2023-03-01T14:48:17.447Z,11.80
2023-03-01T14:50:46.204Z,11.16
2023-03-01T14:53:42.702Z,10.71
2023-03-01T14:56:21.162Z,10.17
2023-03-01T14:58:53.639Z,9.81
2023-03-01T15:01:21.477Z,9.69
2023-03-01T15:03:50.621Z,9.60
2023-03-01T15:06:24.001Z,9.34
2023-03-01T15:08:58.302Z,9.20
2023-03-01T15:11:30.456Z,8.97
2023-03-01T15:13:58.937Z,8.62
2023-03-01T15:16:29.051Z,8.25
2023-03-01T15:19:02.174Z,7.99
2023-03-01T15:21:33.584Z,7.88
2023-03-01T15:24:13.228Z,7.85
2023-03-01T15:26:46.880Z,7.70
2023-03-01T15:29:20.231Z,7.52
2023-03-01T15:32:06.489Z,7.33
2023-03-01T15:34:38.599Z,7.34
2023-03-01T15:37:44.877Z,7.37
2023-03-01T15:40:32.679Z,7.43
2023-03-01T15:43:05.572Z,7.31
2023-03-01T15:45:39.714Z,7.18
2023-03-01T15:48:27.588Z,7.06
2023-03-01T15:51:02.650Z,7.00
2023-03-01T15:53:29.776Z,6.94
2023-03-01T15:55:56.670Z,6.84
2023-03-01T15:58:26.181Z,6.78
2023-03-01T16:01:02.023Z,6.73
2023-03-01T16:03:30.054Z,6.68
2023-03-01T16:05:57.171Z,6.61
2023-03-01T16:08:25.552Z,6.47
2023-03-01T16:10:55.968Z,6.40
2023-03-01T16:13:23.239Z,6.37
2023-03-01T16:15:52.628Z,6.38
2023-03-01T16:18:19.548Z,6.36
2023-03-01T16:20:47.985Z,6.28
2023-03-01T16:23:16.324Z,6.24
2023-03-01T16:25:43.428Z,6.15
2023-03-01T16:28:11.695Z,5.95
2023-03-01T16:30:40.981Z,5.82
2023-03-01T16:33:24.230Z,5.77
2023-03-01T16:35:56.271Z,5.68
2023-03-01T16:38:23.482Z,5.69
2023-03-01T16:40:52.725Z,5.73
2023-03-01T16:43:19.796Z,5.66
2023-03-01T16:45:48.263Z,5.60
2023-03-01T16:48:16.850Z,5.49
2023-03-01T16:50:43.810Z,5.38
2023-03-01T16:53:11.057Z,5.30
2023-03-01T16:55:40.056Z,5.26
2023-03-01T16:58:06.986Z,5.22
2023-03-01T17:00:35.204Z,5.11
2023-03-01T17:03:02.099Z,5.05
2023-03-01T17:05:29.067Z,5.03
2023-03-01T17:07:57.098Z,5.06
2023-03-01T17:10:25.811Z,5.06
2023-03-01T17:12:53.107Z,5.03
2023-03-01T17:15:20.768Z,4.95
2023-03-01T17:17:52.152Z,4.89
2023-03-01T17:20:19.616Z,4.92
2023-03-01T17:22:46.688Z,4.91
2023-03-01T17:25:13.839Z,4.81
2023-03-01T17:27:41.255Z,4.78
2023-03-01T17:30:10.143Z,4.74
2023-03-01T17:32:37.432Z,4.76
2023-03-01T17:35:04.802Z,4.74
2023-03-01T17:37:32.377Z,4.69
2023-03-01T17:39:59.400Z,4.58
2023-03-01T17:42:26.348Z,4.49
2023-03-01T17:44:53.244Z,4.42
2023-03-01T17:47:21.534Z,4.43
2023-03-01T17:49:48.367Z,4.40
2023-03-01T17:52:15.242Z,4.27
2023-03-01T17:54:42.159Z,4.30
2023-03-01T17:57:09.093Z,4.23
2023-03-01T17:59:39.043Z,4.17
2023-03-01T18:02:06.657Z,4.02
2023-03-01T18:04:35.845Z,4.00
2023-03-01T18:07:03.617Z,4.02
2023-03-01T18:09:31.035Z,3.99
2023-03-01T18:12:00.792Z,3.95
2023-03-01T18:14:30.040Z,3.90
2023-03-01T18:16:57.627Z,3.85
2023-03-01T18:19:24.777Z,3.86
2023-03-01T18:21:51.934Z,3.76
2023-03-01T18:24:22.478Z,3.67
2023-03-01T18:26:49.610Z,3.67
2023-03-01T18:29:16.967Z,3.71
2023-03-01T18:31:43.835Z,3.73
2023-03-01T18:34:12.186Z,3.68
2023-03-01T18:36:41.362Z,3.62
2023-03-01T18:39:09.561Z,3.63
2023-03-01T18:41:37.283Z,3.56
2023-03-01T18:44:05.762Z,3.50
2023-03-01T18:46:36.133Z,3.46
2023-03-01T18:49:04.704Z,3.49
2023-03-01T18:51:33.498Z,3.53
2023-03-01T18:54:01.695Z,3.53
2023-03-01T18:56:33.834Z,3.55
2023-03-01T18:59:03.566Z,3.55
2023-03-01T19:01:35.552Z,3.54
2023-03-01T19:04:05.526Z,3.53
2023-03-01T19:06:38.111Z,3.47
2023-03-01T19:09:07.065Z,3.47
2023-03-01T19:11:35.683Z,3.50
2023-03-01T19:14:03.575Z,3.46
2023-03-01T19:16:32.862Z,3.44
2023-03-01T19:19:02.466Z,3.36
2023-03-01T19:21:31.779Z,3.36
2023-03-01T19:24:03.684Z,3.37
2023-03-01T19:26:35.319Z,3.29
2023-03-01T19:29:04.960Z,3.30
2023-03-01T19:31:32.019Z,3.33
2023-03-01T19:34:10.340Z,3.34
2023-03-01T19:36:43.366Z,3.34
2023-03-01T19:39:14.735Z,3.31
2023-03-01T19:41:44.167Z,3.27
2023-03-01T19:44:12.065Z,3.27
2023-03-01T19:46:39.223Z,3.24
2023-03-01T19:49:08.307Z,3.22
2023-03-01T19:51:39.193Z,3.22
2023-03-01T19:54:06.806Z,3.23
2023-03-01T19:56:36.764Z,3.23
2023-03-01T19:59:07.065Z,3.18
2023-03-01T20:01:35.027Z,3.13
2023-03-01T20:04:02.473Z,3.00
2023-03-01T20:06:30.639Z,3.04
2023-03-01T20:09:02.296Z,3.04
2023-03-01T20:11:33.794Z,3.08
2023-03-01T20:14:03.849Z,3.08
2023-03-01T20:16:31.228Z,3.07
2023-03-01T20:19:00.838Z,3.07
2023-03-01T20:21:28.210Z,3.06
2023-03-01T20:23:56.150Z,3.08
2023-03-01T20:26:23.802Z,3.04
2023-03-01T20:28:57.617Z,3.03
2023-03-01T20:31:29.747Z,3.03
2023-03-01T20:33:59.391Z,3.02
2023-03-01T20:36:31.195Z,3.01
2023-03-01T20:38:59.351Z,2.97
2023-03-01T20:41:28.772Z,2.93
2023-03-01T20:43:57.424Z,2.88
2023-03-01T20:46:27.769Z,2.90
2023-03-01T20:48:56.155Z,2.89
2023-03-01T20:51:25.505Z,2.89
2023-03-01T20:53:54.349Z,2.84
2023-03-01T20:56:22.933Z,2.80
2023-03-01T20:59:04.666Z,2.77
2023-03-01T21:01:32.686Z,2.71
2023-03-01T21:04:01.087Z,2.77
2023-03-01T21:06:30.399Z,2.75
2023-03-01T21:08:58.003Z,2.75
2023-03-01T21:11:25.539Z,2.77
2023-03-01T21:13:55.018Z,2.72
2023-03-01T21:16:23.681Z,2.76
2023-03-01T21:18:54.064Z,2.77
2023-03-01T21:21:23.358Z,2.77
2023-03-01T21:23:55.749Z,2.76
2023-03-01T21:26:25.870Z,2.77
2023-03-01T21:29:03.835Z,2.71
2023-03-01T21:31:34.931Z,2.64
2023-03-01T21:34:05.434Z,2.68
2023-03-01T21:36:33.855Z,2.71
2023-03-01T21:39:02.302Z,2.72
2023-03-01T21:41:33.397Z,2.70
2023-03-01T21:44:03.225Z,2.72
2023-03-01T21:46:33.176Z,2.71
2023-03-01T21:49:00.443Z,2.71
2023-03-01T21:51:27.965Z,2.71
2023-03-01T21:53:56.650Z,2.75
2023-03-01T21:56:26.925Z,2.73
2023-03-01T21:58:54.955Z,2.67
2023-03-01T22:01:26.135Z,2.65
2023-03-01T22:03:54.693Z,2.66
2023-03-01T22:06:25.272Z,2.64
2023-03-01T22:08:57.021Z,2.63
2023-03-01T22:11:26.709Z,2.56
2023-03-01T22:13:56.781Z,2.52
2023-03-01T22:16:31.305Z,2.49
2023-03-01T22:18:58.746Z,2.43
2023-03-01T22:21:28.634Z,2.46
2023-03-01T22:23:57.922Z,2.40
2023-03-01T22:26:38.342Z,2.46
2023-03-01T22:29:09.941Z,2.45
2023-03-01T22:31:37.023Z,2.47
2023-03-01T22:34:05.685Z,2.45
2023-03-01T22:36:34.677Z,2.45
2023-03-01T22:39:02.390Z,2.43
2023-03-01T22:41:31.957Z,2.36
2023-03-01T22:43:58.856Z,2.39
2023-03-01T22:46:27.502Z,2.39
2023-03-01T22:48:55.183Z,2.40
2023-03-01T22:51:28.760Z,2.38
2023-03-01T22:53:57.714Z,2.37
2023-03-01T22:56:29.236Z,2.37
2023-03-01T22:58:58.823Z,2.32
2023-03-01T23:01:27.529Z,2.34
2023-03-01T23:03:55.368Z,2.32
2023-03-01T23:06:23.730Z,2.29
2023-03-01T23:08:55.750Z,2.28
2023-03-01T23:11:24.587Z,2.23
2023-03-01T23:13:52.721Z,2.26
2023-03-01T23:16:20.630Z,2.25
2023-03-01T23:18:49.538Z,2.23
2023-03-01T23:21:19.118Z,2.23
2023-03-01T23:23:47.729Z,2.17
2023-03-01T23:26:16.782Z,2.18
2023-03-01T23:28:44.296Z,2.17
2023-03-01T23:31:14.903Z,2.17
2023-03-01T23:33:45.327Z,2.15
2023-03-01T23:36:22.653Z,2.17
2023-03-01T23:38:52.243Z,2.16
2023-03-01T23:41:23.101Z,2.14
2023-03-01T23:43:53.766Z,2.14
2023-03-01T23:46:23.639Z,2.13
2023-03-01T23:48:51.506Z,2.13
2023-03-01T23:51:18.890Z,2.13
2023-03-01T23:53:55.039Z,2.15
2023-03-01T23:56:27.349Z,2.11
2023-03-01T23:58:56.147Z,2.15
